sensor_id;sensor_type;location;lat;lon;timestamp;pressure;altitude;pressure_sealevel;temperature
48854;BMP280;34673;52.808;17.856;2022-07-29T00:01:07;100949.97;;;17.09
48854;BMP280;34673;52.808;17.856;2022-07-29T00:03:45;100951.84;;;17.04
48854;BMP280;34673;52.808;17.856;2022-07-29T00:06:13;100959.78;;;17.01
48854;BMP280;34673;52.808;17.856;2022-07-29T00:08:40;100959.94;;;16.95
48854;BMP280;34673;52.808;17.856;2022-07-29T00:11:07;100966.88;;;16.96
48854;BMP280;34673;52.808;17.856;2022-07-29T00:13:34;100961.78;;;16.90
48854;BMP280;34673;52.808;17.856;2022-07-29T00:16:01;100960.97;;;16.88
48854;BMP280;34673;52.808;17.856;2022-07-29T00:18:31;100960.09;;;16.89
48854;BMP280;34673;52.808;17.856;2022-07-29T00:20:59;100963.59;;;16.88
48854;BMP280;34673;52.808;17.856;2022-07-29T00:23:26;100956.66;;;16.85
48854;BMP280;34673;52.808;17.856;2022-07-29T00:25:53;100963.59;;;16.88
48854;BMP280;34673;52.808;17.856;2022-07-29T00:28:20;100964.44;;;16.88
48854;BMP280;34673;52.808;17.856;2022-07-29T00:30:47;100963.59;;;16.88
48854;BMP280;34673;52.808;17.856;2022-07-29T00:33:14;100963.59;;;16.88
48854;BMP280;34673;52.808;17.856;2022-07-29T00:35:42;100958.44;;;16.84
48854;BMP280;34673;52.808;17.856;2022-07-29T00:38:13;100970.63;;;16.86
48854;BMP280;34673;52.808;17.856;2022-07-29T00:40:41;100968.03;;;16.84
48854;BMP280;34673;52.808;17.856;2022-07-29T00:43:11;100969.78;;;16.83
48854;BMP280;34673;52.808;17.856;2022-07-29T00:45:38;100968.88;;;16.84
48854;BMP280;34673;52.808;17.856;2022-07-29T00:48:06;100972.41;;;16.83
48854;BMP280;34673;52.808;17.856;2022-07-29T00:50:36;100970.66;;;16.82
48854;BMP280;34673;52.808;17.856;2022-07-29T00:53:05;100963.75;;;16.81
48854;BMP280;34673;52.808;17.856;2022-07-29T00:55:33;100961.22;;;16.77
48854;BMP280;34673;52.808;17.856;2022-07-29T00:58:01;100963.84;;;16.75
48854;BMP280;34673;52.808;17.856;2022-07-29T01:00:28;100965.66;;;16.73
48854;BMP280;34673;52.808;17.856;2022-07-29T01:02:56;100957.97;;;16.67
48854;BMP280;34673;52.808;17.856;2022-07-29T01:05:25;100963.94;;;16.72
48854;BMP280;34673;52.808;17.856;2022-07-29T01:08:14;100970.88;;;16.72
48854;BMP280;34673;52.808;17.856;2022-07-29T01:10:43;100965.66;;;16.73
48854;BMP280;34673;52.808;17.856;2022-07-29T01:13:11;100964.72;;;16.74
48854;BMP280;34673;52.808;17.856;2022-07-29T01:15:47;100956.91;;;16.74
48854;BMP280;34673;52.808;17.856;2022-07-29T01:18:20;100956.97;;;16.71
48854;BMP280;34673;52.808;17.856;2022-07-29T01:24:28;100957.06;;;16.68
48854;BMP280;34673;52.808;17.856;2022-07-29T01:30:02;100957.06;;;16.68
48854;BMP280;34673;52.808;17.856;2022-07-29T01:32:36;100960.41;;;16.73
48854;BMP280;34673;52.808;17.856;2022-07-29T01:35:18;100956.88;;;16.77
48854;BMP280;34673;52.808;17.856;2022-07-29T01:37:59;100956.88;;;16.77
48854;BMP280;34673;52.808;17.856;2022-07-29T01:42:57;100951.59;;;16.80
48854;BMP280;34673;52.808;17.856;2022-07-29T01:45:30;100961.19;;;16.78
48854;BMP280;34673;52.808;17.856;2022-07-29T01:50:49;100949.84;;;16.79
48854;BMP280;34673;52.808;17.856;2022-07-29T01:53:38;100951.66;;;16.77
48854;BMP280;34673;52.808;17.856;2022-07-29T01:56:10;100948.13;;;16.78
48854;BMP280;34673;52.808;17.856;2022-07-29T01:58:40;100942.91;;;16.78
48854;BMP280;34673;52.808;17.856;2022-07-29T02:01:09;100939.31;;;16.82
48854;BMP280;34673;52.808;17.856;2022-07-29T02:03:37;100942.91;;;16.78
48854;BMP280;34673;52.808;17.856;2022-07-29T02:06:07;100934.28;;;16.73
48854;BMP280;34673;52.808;17.856;2022-07-29T02:08:37;100942.97;;;16.74
48854;BMP280;34673;52.808;17.856;2022-07-29T02:11:06;100942.16;;;16.72
48854;BMP280;34673;52.808;17.856;2022-07-29T02:13:36;100936.16;;;16.68
48854;BMP280;34673;52.808;17.856;2022-07-29T02:16:06;100939.69;;;16.67
48854;BMP280;34673;52.808;17.856;2022-07-29T02:18:36;100947.53;;;16.66
48854;BMP280;34673;52.808;17.856;2022-07-29T02:21:04;100946.69;;;16.65
48854;BMP280;34673;52.808;17.856;2022-07-29T02:23:40;100944.16;;;16.60
48854;BMP280;34673;52.808;17.856;2022-07-29T02:26:19;100934.56;;;16.61
48854;BMP280;34673;52.808;17.856;2022-07-29T02:28:49;100939.78;;;16.61
48854;BMP280;34673;52.808;17.856;2022-07-29T02:31:19;100941.72;;;16.53
48854;BMP280;34673;52.808;17.856;2022-07-29T02:33:49;100933.88;;;16.54
48854;BMP280;34673;52.808;17.856;2022-07-29T02:36:21;100939.13;;;16.53
48854;BMP280;34673;52.808;17.856;2022-07-29T02:38:48;100932.28;;;16.47
48854;BMP280;34673;52.808;17.856;2022-07-29T02:41:23;100926.28;;;16.44
48854;BMP280;34673;52.808;17.856;2022-07-29T02:44:02;100929.88;;;16.39
48854;BMP280;34673;52.808;17.856;2022-07-29T02:46:37;100928.22;;;16.35
48854;BMP280;34673;52.808;17.856;2022-07-29T02:54:44;100936.88;;;16.37
48854;BMP280;34673;52.808;17.856;2022-07-29T02:57:53;100935.09;;;16.39
48854;BMP280;34673;52.808;17.856;2022-07-29T03:00:23;100935.09;;;16.39
48854;BMP280;34673;52.808;17.856;2022-07-29T03:02:56;100933.28;;;16.42
48854;BMP280;34673;52.808;17.856;2022-07-29T03:05:26;100929.88;;;16.39
48854;BMP280;34673;52.808;17.856;2022-07-29T03:08:00;100923.84;;;16.36
48854;BMP280;34673;52.808;17.856;2022-07-29T03:10:28;100928.22;;;16.35
48854;BMP280;34673;52.808;17.856;2022-07-29T03:12:57;100931.84;;;16.28
48854;BMP280;34673;52.808;17.856;2022-07-29T03:15:25;100927.69;;;16.21
48854;BMP280;34673;52.808;17.856;2022-07-29T03:17:52;100934.53;;;16.25
48854;BMP280;34673;52.808;17.856;2022-07-29T03:20:20;100923.31;;;16.20
48854;BMP280;34673;52.808;17.856;2022-07-29T03:22:48;100928.53;;;16.20
48854;BMP280;34673;52.808;17.856;2022-07-29T03:25:18;100930.44;;;16.15
48854;BMP280;34673;52.808;17.856;2022-07-29T03:27:47;100927.00;;;16.13
48854;BMP280;34673;52.808;17.856;2022-07-29T03:30:15;100934.69;;;16.17
48854;BMP280;34673;52.808;17.856;2022-07-29T03:32:49;100930.34;;;16.18
48854;BMP280;34673;52.808;17.856;2022-07-29T03:35:21;100932.84;;;16.23
48854;BMP280;34673;52.808;17.856;2022-07-29T03:37:49;100929.44;;;16.21
48854;BMP280;34673;52.808;17.856;2022-07-29T03:40:22;100924.22;;;16.21
48854;BMP280;34673;52.808;17.856;2022-07-29T03:42:53;100931.06;;;16.25
48854;BMP280;34673;52.808;17.856;2022-07-29T03:45:22;100928.44;;;16.26
48854;BMP280;34673;52.808;17.856;2022-07-29T03:47:58;100928.38;;;16.29
48854;BMP280;34673;52.808;17.856;2022-07-29T03:50:28;100930.81;;;16.37
48854;BMP280;34673;52.808;17.856;2022-07-29T03:52:57;100916.06;;;16.34
48854;BMP280;34673;52.808;17.856;2022-07-29T03:55:25;100928.94;;;16.42
48854;BMP280;34673;52.808;17.856;2022-07-29T03:57:53;100931.59;;;16.40
48854;BMP280;34673;52.808;17.856;2022-07-29T04:00:24;100928.97;;;16.40
48854;BMP280;34673;52.808;17.856;2022-07-29T04:02:52;100926.38;;;16.40
48854;BMP280;34673;52.808;17.856;2022-07-29T04:05:19;100937.50;;;16.49
48854;BMP280;34673;52.808;17.856;2022-07-29T04:07:47;100935.72;;;16.51
48854;BMP280;34673;52.808;17.856;2022-07-29T04:10:15;100936.47;;;16.56
48854;BMP280;34673;52.808;17.856;2022-07-29T04:12:57;100925.88;;;16.62
48854;BMP280;34673;52.808;17.856;2022-07-29T04:15:24;100913.69;;;16.61
48854;BMP280;34673;52.808;17.856;2022-07-29T04:17:57;100926.53;;;16.70
48854;BMP280;34673;52.808;17.856;2022-07-29T04:20:25;100916.91;;;16.72
48854;BMP280;34673;52.808;17.856;2022-07-29T04:22:52;100922.13;;;16.72
48854;BMP280;34673;52.808;17.856;2022-07-29T04:25:19;100916.97;;;16.69
48854;BMP280;34673;52.808;17.856;2022-07-29T04:27:46;100911.72;;;16.69
48854;BMP280;34673;52.808;17.856;2022-07-29T04:30:29;100928.88;;;16.82
48854;BMP280;34673;52.808;17.856;2022-07-29T04:32:58;100916.53;;;16.88
48854;BMP280;34673;52.808;17.856;2022-07-29T04:35:25;100912.03;;;16.94
48854;BMP280;34673;52.808;17.856;2022-07-29T04:37:52;100914.50;;;16.99
48854;BMP280;34673;52.808;17.856;2022-07-29T04:40:20;100915.22;;;17.05
48854;BMP280;34673;52.808;17.856;2022-07-29T04:42:47;100915.25;;;17.04
48854;BMP280;34673;52.808;17.856;2022-07-29T04:45:15;100922.22;;;17.05
48854;BMP280;34673;52.808;17.856;2022-07-29T04:47:48;100926.44;;;17.09
48854;BMP280;34673;52.808;17.856;2022-07-29T04:50:15;100928.09;;;17.13
48854;BMP280;34673;52.808;17.856;2022-07-29T04:52:43;100927.94;;;17.19
48854;BMP280;34673;52.808;17.856;2022-07-29T04:55:10;100926.06;;;17.24
48854;BMP280;34673;52.808;17.856;2022-07-29T04:57:37;100931.97;;;17.31
48854;BMP280;34673;52.808;17.856;2022-07-29T05:00:06;100934.38;;;17.39
48854;BMP280;34673;52.808;17.856;2022-07-29T05:02:33;100931.59;;;17.45
48854;BMP280;34673;52.808;17.856;2022-07-29T05:05:00;100936.88;;;17.43
48854;BMP280;34673;52.808;17.856;2022-07-29T05:07:27;100928.97;;;17.45
48854;BMP280;34673;52.808;17.856;2022-07-29T05:09:55;100933.25;;;17.49
48854;BMP280;34673;52.808;17.856;2022-07-29T05:12:24;100948.03;;;17.50
48854;BMP280;34673;52.808;17.856;2022-07-29T05:14:51;100948.84;;;17.52
48854;BMP280;34673;52.808;17.856;2022-07-29T05:17:19;100949.59;;;17.57
48854;BMP280;34673;52.808;17.856;2022-07-29T05:19:46;100944.09;;;17.66
48854;BMP280;34673;52.808;17.856;2022-07-29T05:22:13;100942.19;;;17.71
48854;BMP280;34673;52.808;17.856;2022-07-29T05:24:40;100930.78;;;17.74
48854;BMP280;34673;52.808;17.856;2022-07-29T05:27:07;100941.91;;;17.84
48854;BMP280;34673;52.808;17.856;2022-07-29T05:29:34;100936.56;;;17.87
48854;BMP280;34673;52.808;17.856;2022-07-29T05:32:12;100934.78;;;17.89
48854;BMP280;34673;52.808;17.856;2022-07-29T05:34:40;100943.31;;;17.94
48854;BMP280;34673;52.808;17.856;2022-07-29T05:37:19;100934.50;;;17.98
48854;BMP280;34673;52.808;17.856;2022-07-29T05:39:46;100936.19;;;17.99
48854;BMP280;34673;52.808;17.856;2022-07-29T05:42:22;100928.31;;;18.01
48854;BMP280;34673;52.808;17.856;2022-07-29T05:44:49;100929.06;;;18.04
48854;BMP280;34673;52.808;17.856;2022-07-29T05:47:16;100935.66;;;18.17
48854;BMP280;34673;52.808;17.856;2022-07-29T05:49:43;100931.97;;;18.25
48854;BMP280;34673;52.808;17.856;2022-07-29T05:52:11;100933.56;;;18.29
48854;BMP280;34673;52.808;17.856;2022-07-29T05:54:40;100935.22;;;18.31
48854;BMP280;34673;52.808;17.856;2022-07-29T05:57:07;100930.69;;;18.38
48854;BMP280;34673;52.808;17.856;2022-07-29T05:59:37;100927.84;;;18.44
48854;BMP280;34673;52.808;17.856;2022-07-29T06:02:04;100929.47;;;18.48
48854;BMP280;34673;52.808;17.856;2022-07-29T06:04:32;100929.19;;;18.57
48854;BMP280;34673;52.808;17.856;2022-07-29T06:07:00;100928.78;;;18.70
48854;BMP280;34673;52.808;17.856;2022-07-29T06:09:28;100924.88;;;18.83
48854;BMP280;34673;52.808;17.856;2022-07-29T06:11:56;100925.38;;;18.94
48854;BMP280;34673;52.808;17.856;2022-07-29T06:14:25;100922.34;;;19.07
48854;BMP280;34673;52.808;17.856;2022-07-29T06:16:53;100921.91;;;19.19
48854;BMP280;34673;52.808;17.856;2022-07-29T06:19:21;100931.03;;;19.34
48854;BMP280;34673;52.808;17.856;2022-07-29T06:21:48;100924.59;;;19.42
48854;BMP280;34673;52.808;17.856;2022-07-29T06:24:15;100919.88;;;19.52
48854;BMP280;34673;52.808;17.856;2022-07-29T06:26:43;100914.25;;;19.63
48854;BMP280;34673;52.808;17.856;2022-07-29T06:29:10;100918.03;;;19.79
48854;BMP280;34673;52.808;17.856;2022-07-29T06:31:38;100926.00;;;20.00
48854;BMP280;34673;52.808;17.856;2022-07-29T06:34:06;100914.81;;;20.18
48854;BMP280;34673;52.808;17.856;2022-07-29T06:36:37;100914.44;;;20.27
48854;BMP280;34673;52.808;17.856;2022-07-29T06:39:07;100926.03;;;20.44
48854;BMP280;34673;52.808;17.856;2022-07-29T06:41:34;100922.84;;;20.59
48854;BMP280;34673;52.808;17.856;2022-07-29T06:44:08;100923.03;;;20.76
48854;BMP280;34673;52.808;17.856;2022-07-29T06:46:35;100918.94;;;20.90
48854;BMP280;34673;52.808;17.856;2022-07-29T06:49:03;100919.13;;;21.06
48854;BMP280;34673;52.808;17.856;2022-07-29T06:51:31;100920.13;;;21.23
48854;BMP280;34673;52.808;17.856;2022-07-29T06:53:58;100919.50;;;21.39
48854;BMP280;34673;52.808;17.856;2022-07-29T06:56:30;100906.81;;;21.67
48854;BMP280;34673;52.808;17.856;2022-07-29T06:59:06;100908.94;;;21.97
48854;BMP280;34673;52.808;17.856;2022-07-29T07:01:35;100906.25;;;22.18
48854;BMP280;34673;52.808;17.856;2022-07-29T07:04:02;100907.56;;;22.45
48854;BMP280;34673;52.808;17.856;2022-07-29T07:06:29;100905.59;;;22.68
48854;BMP280;34673;52.808;17.856;2022-07-29T07:08:57;100906.91;;;22.76
48854;BMP280;34673;52.808;17.856;2022-07-29T07:11:24;100910.84;;;22.68
48854;BMP280;34673;52.808;17.856;2022-07-29T07:13:51;100905.59;;;22.68
48854;BMP280;34673;52.808;17.856;2022-07-29T07:16:18;100912.66;;;22.85
48854;BMP280;34673;52.808;17.856;2022-07-29T07:18:46;100905.84;;;22.98
48854;BMP280;34673;52.808;17.856;2022-07-29T07:21:13;100882.78;;;23.01
48854;BMP280;34673;52.808;17.856;2022-07-29T07:23:45;100907.28;;;23.38
48854;BMP280;34673;52.808;17.856;2022-07-29T07:26:14;100899.47;;;23.53
48854;BMP280;34673;52.808;17.856;2022-07-29T07:28:41;100895.31;;;23.49
48854;BMP280;34673;52.808;17.856;2022-07-29T07:31:08;100896.09;;;23.51
48854;BMP280;34673;52.808;17.856;2022-07-29T07:33:36;100891.81;;;23.64
48854;BMP280;34673;52.808;17.856;2022-07-29T07:36:03;100898.72;;;23.84
48854;BMP280;34673;52.808;17.856;2022-07-29T07:38:30;100892.25;;;24.05
48854;BMP280;34673;52.808;17.856;2022-07-29T07:40:58;100894.69;;;24.24
48854;BMP280;34673;52.808;17.856;2022-07-29T07:43:25;100883.00;;;24.28
48854;BMP280;34673;52.808;17.856;2022-07-29T07:45:52;100897.84;;;24.47
48854;BMP280;34673;52.808;17.856;2022-07-29T07:48:20;100897.16;;;24.59
48854;BMP280;34673;52.808;17.856;2022-07-29T07:50:47;100899.03;;;24.57
48854;BMP280;34673;52.808;17.856;2022-07-29T07:53:16;100893.38;;;24.63
48854;BMP280;34673;52.808;17.856;2022-07-29T07:55:43;100889.78;;;24.64
48854;BMP280;34673;52.808;17.856;2022-07-29T07:58:30;100905.31;;;24.70
48854;BMP280;34673;52.808;17.856;2022-07-29T08:00:58;100898.38;;;24.84
48854;BMP280;34673;52.808;17.856;2022-07-29T08:03:25;100901.16;;;24.81
48854;BMP280;34673;52.808;17.856;2022-07-29T08:05:53;100903.25;;;24.75
48854;BMP280;34673;52.808;17.856;2022-07-29T08:08:21;100901.00;;;24.84
48854;BMP280;34673;52.808;17.856;2022-07-29T08:10:48;100894.59;;;25.02
48854;BMP280;34673;52.808;17.856;2022-07-29T08:13:31;100893.34;;;25.24
48854;BMP280;34673;52.808;17.856;2022-07-29T08:15:59;100897.31;;;25.45
48854;BMP280;34673;52.808;17.856;2022-07-29T08:18:30;100884.25;;;25.56
48854;BMP280;34673;52.808;17.856;2022-07-29T08:20:58;100877.47;;;25.52
48854;BMP280;34673;52.808;17.856;2022-07-29T08:23:25;100889.34;;;25.59
48854;BMP280;34673;52.808;17.856;2022-07-29T08:26:12;100880.47;;;25.60
48854;BMP280;34673;52.808;17.856;2022-07-29T08:28:41;100890.97;;;25.48
48854;BMP280;34673;52.808;17.856;2022-07-29T08:31:13;100891.66;;;25.23
48854;BMP280;34673;52.808;17.856;2022-07-29T08:33:41;100891.50;;;25.10
48854;BMP280;34673;52.808;17.856;2022-07-29T08:36:08;100894.78;;;25.13
48854;BMP280;34673;52.808;17.856;2022-07-29T08:38:36;100893.53;;;25.35
48854;BMP280;34673;52.808;17.856;2022-07-29T08:41:04;100893.72;;;25.60
48854;BMP280;34673;52.808;17.856;2022-07-29T08:43:31;100889.72;;;25.82
48854;BMP280;34673;52.808;17.856;2022-07-29T08:46:00;100889.25;;;26.04
48854;BMP280;34673;52.808;17.856;2022-07-29T08:48:27;100885.63;;;26.05
48854;BMP280;34673;52.808;17.856;2022-07-29T08:50:56;100883.44;;;26.12
48854;BMP280;34673;52.808;17.856;2022-07-29T08:53:24;100888.41;;;26.03
48854;BMP280;34673;52.808;17.856;2022-07-29T08:55:53;100894.06;;;25.97
48854;BMP280;34673;52.808;17.856;2022-07-29T08:58:21;100894.94;;;25.98
48854;BMP280;34673;52.808;17.856;2022-07-29T09:00:53;100892.28;;;25.83
48854;BMP280;34673;52.808;17.856;2022-07-29T09:03:25;100899.19;;;25.72
48854;BMP280;34673;52.808;17.856;2022-07-29T09:05:52;100890.69;;;25.67
48854;BMP280;34673;52.808;17.856;2022-07-29T09:08:20;100905.75;;;25.52
48854;BMP280;34673;52.808;17.856;2022-07-29T09:10:48;100899.97;;;25.31
48854;BMP280;34673;52.808;17.856;2022-07-29T09:13:16;100892.72;;;25.04
48854;BMP280;34673;52.808;17.856;2022-07-29T09:15:44;100895.88;;;24.81
48854;BMP280;34673;52.808;17.856;2022-07-29T09:18:11;100912.28;;;24.71
48854;BMP280;34673;52.808;17.856;2022-07-29T09:20:56;100902.78;;;24.53
48854;BMP280;34673;52.808;17.856;2022-07-29T09:24:05;100891.69;;;24.30
48854;BMP280;34673;52.808;17.856;2022-07-29T09:26:44;100895.63;;;24.23
48854;BMP280;34673;52.808;17.856;2022-07-29T09:29:20;100901.44;;;24.14
48854;BMP280;34673;52.808;17.856;2022-07-29T09:31:51;100903.47;;;24.09
48854;BMP280;34673;52.808;17.856;2022-07-29T09:34:26;100900.75;;;24.10
48854;BMP280;34673;52.808;17.856;2022-07-29T09:36:55;100891.03;;;24.11
48854;BMP280;34673;52.808;17.856;2022-07-29T09:39:31;100896.31;;;24.11
48854;BMP280;34673;52.808;17.856;2022-07-29T09:42:03;100889.66;;;24.04
48854;BMP280;34673;52.808;17.856;2022-07-29T09:44:48;100895.31;;;23.98
48854;BMP280;34673;52.808;17.856;2022-07-29T09:47:17;100890.38;;;23.92
48854;BMP280;34673;52.808;17.856;2022-07-29T09:52:20;100893.44;;;24.00
48854;BMP280;34673;52.808;17.856;2022-07-29T09:54:48;100894.34;;;23.99
48854;BMP280;34673;52.808;17.856;2022-07-29T09:57:27;100872.00;;;23.88
48854;BMP280;34673;52.808;17.856;2022-07-29T10:02:32;100890.03;;;24.14
48854;BMP280;34673;52.808;17.856;2022-07-29T10:05:02;100893.94;;;24.22
48854;BMP280;34673;52.808;17.856;2022-07-29T10:07:49;100886.94;;;24.21
48854;BMP280;34673;52.808;17.856;2022-07-29T10:12:56;100885.56;;;24.14
48854;BMP280;34673;52.808;17.856;2022-07-29T10:15:33;100872.72;;;24.08
48854;BMP280;34673;52.808;17.856;2022-07-29T10:18:06;100885.75;;;24.11
48854;BMP280;34673;52.808;17.856;2022-07-29T10:20:34;100891.63;;;24.16
48854;BMP280;34673;52.808;17.856;2022-07-29T10:23:01;100881.81;;;24.18
48854;BMP280;34673;52.808;17.856;2022-07-29T10:25:30;100889.00;;;24.16
48854;BMP280;34673;52.808;17.856;2022-07-29T10:27:57;100887.63;;;24.09
48854;BMP280;34673;52.808;17.856;2022-07-29T10:30:25;100885.81;;;24.09
48854;BMP280;34673;52.808;17.856;2022-07-29T10:44:35;100886.59;;;24.27
48854;BMP280;34673;52.808;17.856;2022-07-29T10:47:03;100887.38;;;24.29
48854;BMP280;34673;52.808;17.856;2022-07-29T10:49:30;100892.72;;;24.28
48854;BMP280;34673;52.808;17.856;2022-07-29T10:52:07;100881.47;;;24.24
48854;BMP280;34673;52.808;17.856;2022-07-29T10:54:36;100881.31;;;24.27
48854;BMP280;34673;52.808;17.856;2022-07-29T10:59:44;100873.19;;;24.30
48854;BMP280;34673;52.808;17.856;2022-07-29T11:05:10;100882.38;;;24.55
48854;BMP280;34673;52.808;17.856;2022-07-29T11:07:39;100874.28;;;24.58
48854;BMP280;34673;52.808;17.856;2022-07-29T11:15:12;100880.09;;;24.49
48854;BMP280;34673;52.808;17.856;2022-07-29T11:20:45;100875.91;;;24.45
48854;BMP280;34673;52.808;17.856;2022-07-29T11:23:23;100865.94;;;24.50
48854;BMP280;34673;52.808;17.856;2022-07-29T11:45:16;100851.28;;;24.89
48854;BMP280;34673;52.808;17.856;2022-07-29T11:48:04;100851.13;;;25.06
48854;BMP280;34673;52.808;17.856;2022-07-29T11:50:52;100842.84;;;25.41
48854;BMP280;34673;52.808;17.856;2022-07-29T11:53:20;100842.88;;;25.82
48854;BMP280;34673;52.808;17.856;2022-07-29T11:55:54;100855.06;;;25.99
48854;BMP280;34673;52.808;17.856;2022-07-29T11:58:24;100849.34;;;26.05
48854;BMP280;34673;52.808;17.856;2022-07-29T12:00:52;100838.72;;;26.20
48854;BMP280;34673;52.808;17.856;2022-07-29T12:03:40;100842.25;;;26.33
48854;BMP280;34673;52.808;17.856;2022-07-29T12:06:14;100845.03;;;26.44
48854;BMP280;34673;52.808;17.856;2022-07-29T12:08:44;100840.66;;;26.58
48854;BMP280;34673;52.808;17.856;2022-07-29T12:11:19;100832.34;;;26.62
48854;BMP280;34673;52.808;17.856;2022-07-29T12:13:50;100833.00;;;26.79
48854;BMP280;34673;52.808;17.856;2022-07-29T12:16:21;100827.50;;;26.69
48854;BMP280;34673;52.808;17.856;2022-07-29T12:18:59;100826.47;;;26.44
48854;BMP280;34673;52.808;17.856;2022-07-29T12:21:29;100832.56;;;26.19
48854;BMP280;34673;52.808;17.856;2022-07-29T12:23:57;100828.56;;;25.99
48854;BMP280;34673;52.808;17.856;2022-07-29T12:26:34;100824.22;;;25.98
48854;BMP280;34673;52.808;17.856;2022-07-29T12:29:02;100817.94;;;25.99
48854;BMP280;34673;52.808;17.856;2022-07-29T12:31:37;100828.34;;;26.02
48854;BMP280;34673;52.808;17.856;2022-07-29T12:34:15;100819.47;;;26.03
48854;BMP280;34673;52.808;17.856;2022-07-29T12:36:43;100821.75;;;26.22
48854;BMP280;34673;52.808;17.856;2022-07-29T12:39:11;100814.69;;;26.36
48854;BMP280;34673;52.808;17.856;2022-07-29T12:41:39;100814.75;;;26.61
48854;BMP280;34673;52.808;17.856;2022-07-29T12:44:06;100803.91;;;26.64
48854;BMP280;34673;52.808;17.856;2022-07-29T12:46:33;100818.34;;;26.73
48854;BMP280;34673;52.808;17.856;2022-07-29T12:49:01;100816.25;;;26.78
48854;BMP280;34673;52.808;17.856;2022-07-29T12:54:04;100811.34;;;26.72
48854;BMP280;34673;52.808;17.856;2022-07-29T12:56:32;100813.75;;;26.49
48854;BMP280;34673;52.808;17.856;2022-07-29T12:59:20;100814.22;;;26.29
48854;BMP280;34673;52.808;17.856;2022-07-29T13:01:52;100820.16;;;26.20
48854;BMP280;34673;52.808;17.856;2022-07-29T13:04:30;100810.97;;;25.98
48854;BMP280;34673;52.808;17.856;2022-07-29T13:07:03;100801.31;;;25.83
48854;BMP280;34673;52.808;17.856;2022-07-29T13:12:11;100799.09;;;25.62
48854;BMP280;34673;52.808;17.856;2022-07-29T13:14:46;100781.91;;;25.55
48854;BMP280;34673;52.808;17.856;2022-07-29T13:17:19;100791.69;;;25.68
48854;BMP280;34673;52.808;17.856;2022-07-29T13:19:52;100792.09;;;25.61
48854;BMP280;34673;52.808;17.856;2022-07-29T13:22:23;100786.25;;;25.42
48854;BMP280;34673;52.808;17.856;2022-07-29T13:24:55;100780.22;;;25.54
48854;BMP280;34673;52.808;17.856;2022-07-29T13:27:25;100782.00;;;25.81
48854;BMP280;34673;52.808;17.856;2022-07-29T13:29:53;100778.94;;;26.01
48854;BMP280;34673;52.808;17.856;2022-07-29T13:32:24;100778.19;;;25.99
48854;BMP280;34673;52.808;17.856;2022-07-29T13:34:59;100775.00;;;25.80
48854;BMP280;34673;52.808;17.856;2022-07-29T13:37:30;100762.19;;;25.59
48854;BMP280;34673;52.808;17.856;2022-07-29T13:39:59;100767.69;;;25.56
48854;BMP280;34673;52.808;17.856;2022-07-29T13:42:27;100768.38;;;25.60
48854;BMP280;34673;52.808;17.856;2022-07-29T13:44:54;100761.59;;;25.69
48854;BMP280;34673;52.808;17.856;2022-07-29T13:47:22;100760.50;;;25.58
48854;BMP280;34673;52.808;17.856;2022-07-29T13:50:00;100759.78;;;25.42
48854;BMP280;34673;52.808;17.856;2022-07-29T13:52:27;100755.28;;;25.30
48854;BMP280;34673;52.808;17.856;2022-07-29T13:54:54;100753.00;;;25.24
48854;BMP280;34673;52.808;17.856;2022-07-29T13:57:22;100754.53;;;25.28
48854;BMP280;34673;52.808;17.856;2022-07-29T13:59:49;100755.28;;;25.30
48854;BMP280;34673;52.808;17.856;2022-07-29T14:02:20;100746.19;;;25.34
48854;BMP280;34673;52.808;17.856;2022-07-29T14:04:52;100748.34;;;25.41
48854;BMP280;34673;52.808;17.856;2022-07-29T14:07:21;100744.59;;;25.58
48854;BMP280;34673;52.808;17.856;2022-07-29T14:09:48;100740.41;;;25.69
48854;BMP280;34673;52.808;17.856;2022-07-29T14:12:15;100739.66;;;25.67
48854;BMP280;34673;52.808;17.856;2022-07-29T14:14:43;100746.69;;;25.53
48854;BMP280;34673;52.808;17.856;2022-07-29T14:17:13;100744.72;;;25.42
48854;BMP280;34673;52.808;17.856;2022-07-29T14:19:40;100738.31;;;25.47
48854;BMP280;34673;52.808;17.856;2022-07-29T14:22:08;100743.13;;;25.54
48854;BMP280;34673;52.808;17.856;2022-07-29T14:24:36;100737.50;;;25.59
48854;BMP280;34673;52.808;17.856;2022-07-29T14:27:05;100744.59;;;25.58
48854;BMP280;34673;52.808;17.856;2022-07-29T14:29:33;100733.72;;;25.49
48854;BMP280;34673;52.808;17.856;2022-07-29T14:32:08;100747.88;;;25.35
48854;BMP280;34673;52.808;17.856;2022-07-29T14:34:37;100739.75;;;25.24
48854;BMP280;34673;52.808;17.856;2022-07-29T14:37:05;100737.09;;;25.09
48854;BMP280;34673;52.808;17.856;2022-07-29T14:39:34;100735.97;;;24.99
48854;BMP280;34673;52.808;17.856;2022-07-29T14:42:09;100735.97;;;24.99
48854;BMP280;34673;52.808;17.856;2022-07-29T14:44:39;100726.91;;;25.03
48854;BMP280;34673;52.808;17.856;2022-07-29T14:47:08;100721.78;;;25.14
48854;BMP280;34673;52.808;17.856;2022-07-29T14:49:35;100713.69;;;25.17
48854;BMP280;34673;52.808;17.856;2022-07-29T14:52:03;100722.72;;;25.13
48854;BMP280;34673;52.808;17.856;2022-07-29T14:54:30;100705.94;;;25.00
48854;BMP280;34673;52.808;17.856;2022-07-29T14:56:58;100718.41;;;24.98
48854;BMP280;34673;52.808;17.856;2022-07-29T14:59:25;100711.97;;;24.88
48854;BMP280;34673;52.808;17.856;2022-07-29T15:01:53;100688.72;;;24.64
48854;BMP280;34673;52.808;17.856;2022-07-29T15:04:20;100725.88;;;24.77
48854;BMP280;34673;52.808;17.856;2022-07-29T15:06:48;100726.91;;;24.74
48854;BMP280;34673;52.808;17.856;2022-07-29T15:09:15;100722.75;;;24.70
48854;BMP280;34673;52.808;17.856;2022-07-29T15:11:43;100718.22;;;24.72
48854;BMP280;34673;52.808;17.856;2022-07-29T15:14:10;100722.25;;;24.78
48854;BMP280;34673;52.808;17.856;2022-07-29T15:16:38;100711.97;;;24.88